createdAt,value
2018-06-16T00:00:05.012Z,17.00
2018-06-16T00:01:05.657Z,16.90
2018-06-16T00:02:04.889Z,16.90
2018-06-16T00:03:05.061Z,17.00
2018-06-16T00:04:04.984Z,16.90
2018-06-16T00:05:04.934Z,17.00
2018-06-16T00:06:05.604Z,17.00
2018-06-16T00:07:05.226Z,17.00
2018-06-16T00:08:05.070Z,17.00
2018-06-16T00:09:05.008Z,17.00
2018-06-16T00:10:05.339Z,17.00
2018-06-16T00:11:05.601Z,17.00
2018-06-16T00:12:04.668Z,17.00
2018-06-16T00:13:05.010Z,17.00
2018-06-16T00:14:05.017Z,17.00
2018-06-16T00:15:05.234Z,17.00
2018-06-16T00:16:05.559Z,17.00
2018-06-16T00:17:05.708Z,17.00
2018-06-16T00:18:05.240Z,17.00
2018-06-16T00:19:05.161Z,17.00
2018-06-16T00:20:05.406Z,17.00
2018-06-16T00:21:05.483Z,17.00
2018-06-16T00:22:05.679Z,17.00
2018-06-16T00:23:04.713Z,17.00
2018-06-16T00:24:05.258Z,17.00
2018-06-16T00:25:05.100Z,17.00
2018-06-16T00:26:05.059Z,17.00
2018-06-16T00:27:04.824Z,17.00
2018-06-16T00:28:05.102Z,17.00
2018-06-16T00:29:05.556Z,17.10
2018-06-16T00:30:05.704Z,17.10
2018-06-16T00:31:05.224Z,17.00
2018-06-16T00:32:05.058Z,17.10
2018-06-16T00:33:04.921Z,17.10
2018-06-16T00:34:05.484Z,17.00
2018-06-16T00:35:05.160Z,17.00
2018-06-16T00:36:04.962Z,17.10
2018-06-16T00:37:04.877Z,17.00
2018-06-16T00:38:04.905Z,17.00
2018-06-16T00:39:05.568Z,17.00
2018-06-16T00:40:05.580Z,17.00
2018-06-16T00:41:05.493Z,17.10
2018-06-16T00:42:05.132Z,17.00
2018-06-16T00:43:04.983Z,17.00
2018-06-16T00:44:05.503Z,17.00
2018-06-16T00:45:10.273Z,17.00
2018-06-16T00:46:05.045Z,17.00
2018-06-16T00:47:05.407Z,17.00
2018-06-16T00:48:04.989Z,17.00
2018-06-16T00:49:04.805Z,17.00
2018-06-16T00:50:05.650Z,17.00
2018-06-16T00:51:05.288Z,17.00
2018-06-16T00:52:04.840Z,17.00
2018-06-16T00:53:05.368Z,17.00
2018-06-16T00:54:05.254Z,17.00
2018-06-16T00:55:04.953Z,17.00
2018-06-16T00:56:04.979Z,17.00
2018-06-16T00:57:05.370Z,17.00
2018-06-16T00:58:04.885Z,17.00
2018-06-16T00:59:05.520Z,16.90
2018-06-16T01:00:05.184Z,16.90
2018-06-16T01:01:10.727Z,16.90
2018-06-16T01:02:05.724Z,16.90
2018-06-16T01:03:05.252Z,16.90
2018-06-16T01:04:04.810Z,16.90
2018-06-16T01:05:12.613Z,16.90
2018-06-16T01:06:05.643Z,16.90
2018-06-16T01:07:05.367Z,16.90
2018-06-16T01:08:05.187Z,16.90
2018-06-16T01:09:04.775Z,16.90
2018-06-16T01:10:04.829Z,16.90
2018-06-16T01:11:05.037Z,16.90
2018-06-16T01:12:05.081Z,16.90
2018-06-16T01:13:05.297Z,16.90
2018-06-16T01:14:05.368Z,16.90
2018-06-16T01:15:05.496Z,16.90
2018-06-16T01:16:05.475Z,16.90
2018-06-16T01:17:05.631Z,16.90
2018-06-16T01:18:05.299Z,16.90
2018-06-16T01:19:05.080Z,16.90
2018-06-16T01:20:05.137Z,16.90
2018-06-16T01:21:04.767Z,16.90
2018-06-16T01:22:04.777Z,16.90
2018-06-16T01:23:05.574Z,16.90
2018-06-16T01:24:05.218Z,16.90
2018-06-16T01:25:05.448Z,16.90
2018-06-16T01:26:05.118Z,16.90
2018-06-16T01:27:05.178Z,16.90
2018-06-16T01:28:05.471Z,16.90
2018-06-16T01:29:05.580Z,16.90
2018-06-16T01:30:05.261Z,16.90
2018-06-16T01:31:05.502Z,16.90
2018-06-16T01:32:05.366Z,16.90
2018-06-16T01:33:04.864Z,16.90
2018-06-16T01:34:04.870Z,17.00
2018-06-16T01:35:04.791Z,17.00
2018-06-16T01:36:04.830Z,17.00
2018-06-16T01:37:05.487Z,17.00
2018-06-16T01:38:05.697Z,17.00
2018-06-16T01:39:05.553Z,17.00
2018-06-16T01:40:05.205Z,17.00
2018-06-16T01:41:05.301Z,17.00
2018-06-16T01:42:05.180Z,17.00
2018-06-16T01:43:04.845Z,17.00
2018-06-16T01:44:05.356Z,17.00
2018-06-16T01:45:05.423Z,17.00
2018-06-16T01:46:05.647Z,17.00
2018-06-16T01:47:08.147Z,17.00
2018-06-16T01:48:05.245Z,17.00
2018-06-16T01:49:05.150Z,17.00
2018-06-16T01:50:05.243Z,16.90
2018-06-16T01:51:05.088Z,16.90
2018-06-16T01:52:05.637Z,16.90
2018-06-16T01:53:05.214Z,16.90
2018-06-16T01:54:05.247Z,17.00
2018-06-16T01:55:04.777Z,16.90
2018-06-16T01:56:05.631Z,17.00
2018-06-16T01:57:05.942Z,16.90
2018-06-16T01:58:04.888Z,17.00
2018-06-16T01:59:04.965Z,16.90
2018-06-16T02:00:05.571Z,17.00
2018-06-16T02:01:05.129Z,16.90
2018-06-16T02:02:04.930Z,17.00
2018-06-16T02:03:05.158Z,17.00
2018-06-16T02:04:04.780Z,17.00
2018-06-16T02:05:05.489Z,17.00
2018-06-16T02:06:04.807Z,17.00
2018-06-16T02:07:05.567Z,17.00
2018-06-16T02:08:05.174Z,17.00
2018-06-16T02:09:05.029Z,17.00
2018-06-16T02:10:05.171Z,16.90
2018-06-16T02:11:04.761Z,16.90
2018-06-16T02:12:05.005Z,16.90
2018-06-16T02:13:05.630Z,16.90
2018-06-16T02:14:05.121Z,16.90
2018-06-16T02:15:05.310Z,16.90
2018-06-16T02:16:05.294Z,16.90
2018-06-16T02:17:05.344Z,16.90
2018-06-16T02:18:05.202Z,16.90
2018-06-16T02:19:05.252Z,16.90
2018-06-16T02:20:05.310Z,16.90
2018-06-16T02:21:04.794Z,16.90
2018-06-16T02:22:05.437Z,16.90
2018-06-16T02:23:05.263Z,16.90
2018-06-16T02:24:08.116Z,16.90
2018-06-16T02:25:04.812Z,16.90
2018-06-16T02:26:04.693Z,16.90
2018-06-16T02:27:05.488Z,16.90
2018-06-16T02:28:04.794Z,16.90
2018-06-16T02:29:05.199Z,16.90
2018-06-16T02:30:05.108Z,16.80
2018-06-16T02:31:05.014Z,16.90
2018-06-16T02:32:05.485Z,16.80
2018-06-16T02:33:05.065Z,16.90
2018-06-16T02:34:04.925Z,16.80
2018-06-16T02:35:05.026Z,16.90
2018-06-16T02:36:05.028Z,16.90
2018-06-16T02:37:04.838Z,16.90
2018-06-16T02:38:05.544Z,16.90
2018-06-16T02:39:04.878Z,16.90
2018-06-16T02:40:04.877Z,16.90
2018-06-16T02:41:04.674Z,16.90
2018-06-16T02:42:04.868Z,16.90
2018-06-16T02:43:05.098Z,16.90
2018-06-16T02:44:04.958Z,16.90
2018-06-16T02:45:04.656Z,16.90
2018-06-16T02:46:05.417Z,16.90
2018-06-16T02:47:05.348Z,16.90
2018-06-16T02:48:05.650Z,16.90
2018-06-16T02:49:04.920Z,16.90
2018-06-16T02:50:05.623Z,16.90
2018-06-16T02:51:05.696Z,16.90
2018-06-16T02:52:04.782Z,16.90
2018-06-16T02:53:05.630Z,16.90
2018-06-16T02:54:05.529Z,16.90
2018-06-16T02:55:05.494Z,16.90
2018-06-16T02:56:04.762Z,16.90
2018-06-16T02:57:05.626Z,16.90
2018-06-16T02:58:04.753Z,16.90
2018-06-16T02:59:05.004Z,16.90
2018-06-16T03:00:05.100Z,16.90
2018-06-16T03:01:04.737Z,16.90
2018-06-16T03:02:05.001Z,16.90
2018-06-16T03:03:05.395Z,16.90
2018-06-16T03:04:05.171Z,16.90
2018-06-16T03:05:04.884Z,16.80
2018-06-16T03:06:05.106Z,16.80
2018-06-16T03:07:05.589Z,16.80
2018-06-16T03:08:05.616Z,16.80
2018-06-16T03:09:05.362Z,16.80
2018-06-16T03:10:05.160Z,16.80
2018-06-16T03:11:04.926Z,16.80
2018-06-16T03:12:04.867Z,16.80
2018-06-16T03:13:05.008Z,16.80
2018-06-16T03:14:04.942Z,16.80
2018-06-16T03:15:04.954Z,16.90
2018-06-16T03:16:04.851Z,16.80
2018-06-16T03:17:05.420Z,16.80
2018-06-16T03:18:04.848Z,16.80
2018-06-16T03:19:05.468Z,16.80
2018-06-16T03:20:04.959Z,16.80
2018-06-16T03:21:04.826Z,16.90
2018-06-16T03:22:04.925Z,16.90
2018-06-16T03:23:05.716Z,16.90
2018-06-16T03:24:04.966Z,16.90
2018-06-16T03:25:05.267Z,16.90
2018-06-16T03:26:05.228Z,16.90
2018-06-16T03:27:05.136Z,16.90
2018-06-16T03:28:05.462Z,16.80
2018-06-16T03:29:05.719Z,16.80
2018-06-16T03:30:05.179Z,16.80
2018-06-16T03:31:05.470Z,16.80
2018-06-16T03:32:05.219Z,16.80
2018-06-16T03:33:04.825Z,16.80
2018-06-16T03:34:04.934Z,16.80
2018-06-16T03:35:05.697Z,16.80
2018-06-16T03:36:05.425Z,16.80
2018-06-16T03:37:05.614Z,16.80
2018-06-16T03:38:05.158Z,16.80
2018-06-16T03:39:05.000Z,16.80
2018-06-16T03:40:05.079Z,16.80
2018-06-16T03:41:04.750Z,16.80
2018-06-16T03:42:05.130Z,16.80
2018-06-16T03:43:05.071Z,16.70
2018-06-16T03:44:05.566Z,16.80
2018-06-16T03:45:04.642Z,16.80
2018-06-16T03:46:04.632Z,16.80
2018-06-16T03:47:05.244Z,16.80
2018-06-16T03:48:05.515Z,16.80
2018-06-16T03:49:05.544Z,16.80
2018-06-16T03:50:05.467Z,16.80
2018-06-16T03:51:05.571Z,16.80
2018-06-16T03:52:05.657Z,16.80
2018-06-16T03:53:04.660Z,16.80
2018-06-16T03:54:04.946Z,16.80
2018-06-16T03:55:05.418Z,16.80
2018-06-16T03:56:05.598Z,16.80
2018-06-16T03:57:05.459Z,16.80
2018-06-16T03:58:04.718Z,16.80
2018-06-16T03:59:05.348Z,16.80
2018-06-16T04:00:04.939Z,16.80
2018-06-16T04:01:04.848Z,16.80
2018-06-16T04:02:05.765Z,16.80
2018-06-16T04:03:04.617Z,16.80
2018-06-16T04:04:04.765Z,16.80
2018-06-16T04:05:04.944Z,16.80
2018-06-16T04:06:04.826Z,16.90
2018-06-16T04:07:05.591Z,16.90
2018-06-16T04:08:05.344Z,16.90
2018-06-16T04:09:05.532Z,16.90
2018-06-16T04:10:04.861Z,16.90
2018-06-16T04:11:04.943Z,16.90
2018-06-16T04:12:04.773Z,16.90
2018-06-16T04:13:05.553Z,16.90
2018-06-16T04:14:05.184Z,16.90
2018-06-16T04:15:05.246Z,16.90
2018-06-16T04:16:04.829Z,16.90
2018-06-16T04:17:05.379Z,16.90
2018-06-16T04:18:05.622Z,16.90
2018-06-16T04:19:05.080Z,16.90
2018-06-16T04:20:04.763Z,16.90
2018-06-16T04:21:05.445Z,16.90
2018-06-16T04:22:05.287Z,16.90
2018-06-16T04:23:05.158Z,16.90
2018-06-16T04:24:05.424Z,16.90
2018-06-16T04:25:05.561Z,16.90
2018-06-16T04:26:05.537Z,16.90
2018-06-16T04:27:05.303Z,16.90
2018-06-16T04:28:05.669Z,16.90
2018-06-16T04:29:04.991Z,16.90
2018-06-16T04:30:04.871Z,16.90
2018-06-16T04:31:05.012Z,16.90
2018-06-16T04:32:04.923Z,16.90
2018-06-16T04:33:05.049Z,16.90
2018-06-16T04:34:05.247Z,16.90
2018-06-16T04:35:04.953Z,16.90
2018-06-16T04:36:05.504Z,17.00
2018-06-16T04:37:05.182Z,17.00
2018-06-16T04:38:05.414Z,17.00
2018-06-16T04:39:04.812Z,17.00
2018-06-16T04:40:05.114Z,17.00
2018-06-16T04:41:04.760Z,17.00
2018-06-16T04:42:05.061Z,17.00
2018-06-16T04:43:04.850Z,17.00
2018-06-16T04:44:05.275Z,17.00
2018-06-16T04:45:05.652Z,17.00
2018-06-16T04:46:05.586Z,17.00
2018-06-16T04:47:05.239Z,17.00
2018-06-16T04:48:04.926Z,17.00
2018-06-16T04:49:05.178Z,17.00
2018-06-16T04:50:04.728Z,17.00
2018-06-16T04:51:04.895Z,17.00
2018-06-16T04:52:04.897Z,17.10
2018-06-16T04:53:05.405Z,17.10
2018-06-16T04:54:04.844Z,17.10
2018-06-16T04:55:05.220Z,17.10
2018-06-16T04:56:05.387Z,17.10
2018-06-16T04:57:05.635Z,17.10
2018-06-16T04:58:05.440Z,17.10
2018-06-16T04:59:05.250Z,17.10
2018-06-16T05:00:05.042Z,17.10
2018-06-16T05:01:05.668Z,17.10
2018-06-16T05:02:05.331Z,17.20
2018-06-16T05:03:05.459Z,17.20
2018-06-16T05:04:05.523Z,17.20
2018-06-16T05:05:05.489Z,17.20
2018-06-16T05:06:05.213Z,17.20
2018-06-16T05:07:04.717Z,17.20
2018-06-16T05:08:04.893Z,17.20
2018-06-16T05:09:04.826Z,17.20
2018-06-16T05:10:04.991Z,17.20
2018-06-16T05:11:04.840Z,17.20
2018-06-16T05:12:05.532Z,17.20
2018-06-16T05:13:05.485Z,17.20
2018-06-16T05:14:10.024Z,17.20
2018-06-16T05:15:10.477Z,17.20
2018-06-16T05:16:05.517Z,17.30
2018-06-16T05:17:05.052Z,17.30
2018-06-16T05:18:05.662Z,17.30
2018-06-16T05:19:05.510Z,17.30
2018-06-16T05:20:05.291Z,17.30
2018-06-16T05:21:05.019Z,17.30
2018-06-16T05:22:05.507Z,17.30
2018-06-16T05:23:05.175Z,17.30
2018-06-16T05:24:05.359Z,17.30
2018-06-16T05:25:05.426Z,17.30
2018-06-16T05:26:04.952Z,17.30
2018-06-16T05:27:05.705Z,17.30
2018-06-16T05:28:05.301Z,17.30
2018-06-16T05:29:04.825Z,17.30
2018-06-16T05:30:05.745Z,17.30
2018-06-16T05:31:05.258Z,17.30
2018-06-16T05:32:05.064Z,17.40
2018-06-16T05:33:04.747Z,17.40
2018-06-16T05:34:04.717Z,17.30
2018-06-16T05:35:05.604Z,17.40
2018-06-16T05:36:05.093Z,17.40
2018-06-16T05:37:05.183Z,17.40
2018-06-16T05:38:04.823Z,17.40
2018-06-16T05:39:05.396Z,17.40
2018-06-16T05:40:05.668Z,17.40
2018-06-16T05:41:05.167Z,17.40
2018-06-16T05:42:05.178Z,17.40
2018-06-16T05:43:04.756Z,17.40
2018-06-16T05:44:05.450Z,17.40
2018-06-16T05:45:05.260Z,17.40
2018-06-16T05:46:05.202Z,17.40
2018-06-16T05:47:05.008Z,17.40
2018-06-16T05:48:04.862Z,17.40
2018-06-16T05:49:04.800Z,17.40
2018-06-16T05:50:04.773Z,17.40
2018-06-16T05:51:05.424Z,17.40
2018-06-16T05:52:04.925Z,17.40
2018-06-16T05:53:04.870Z,17.40
2018-06-16T05:54:05.630Z,17.40
2018-06-16T05:55:04.807Z,17.40
2018-06-16T05:56:05.551Z,17.50
2018-06-16T05:57:05.318Z,17.50
2018-06-16T05:58:04.929Z,17.50
2018-06-16T05:59:04.807Z,17.50
2018-06-16T06:00:05.592Z,17.50
2018-06-16T06:01:05.063Z,17.50
2018-06-16T06:02:05.264Z,17.50
2018-06-16T06:03:04.837Z,17.50
2018-06-16T06:04:04.793Z,17.50
2018-06-16T06:05:05.435Z,17.50
2018-06-16T06:06:05.027Z,17.60
2018-06-16T06:07:05.585Z,17.60
2018-06-16T06:08:05.490Z,17.60
2018-06-16T06:09:05.376Z,17.60
2018-06-16T06:10:04.721Z,17.60
2018-06-16T06:11:05.623Z,17.60
2018-06-16T06:12:04.734Z,17.60
2018-06-16T06:13:05.137Z,17.60
2018-06-16T06:14:04.795Z,17.60
2018-06-16T06:15:05.395Z,17.60
2018-06-16T06:16:05.442Z,17.70
2018-06-16T06:17:05.538Z,17.70
2018-06-16T06:18:04.638Z,17.70
2018-06-16T06:19:05.492Z,17.70
2018-06-16T06:20:05.367Z,17.70
2018-06-16T06:21:04.854Z,17.70
2018-06-16T06:22:04.937Z,17.70
2018-06-16T06:23:05.515Z,17.70
2018-06-16T06:24:05.502Z,17.80
2018-06-16T06:25:05.077Z,17.80
2018-06-16T06:26:05.472Z,17.80
2018-06-16T06:27:05.043Z,17.80
2018-06-16T06:28:06.743Z,17.90
2018-06-16T06:29:05.176Z,17.90
2018-06-16T06:30:05.207Z,17.90
2018-06-16T06:31:05.229Z,17.90
2018-06-16T06:32:05.130Z,18.00
2018-06-16T06:33:05.050Z,18.00
2018-06-16T06:34:05.255Z,18.00
2018-06-16T06:35:04.962Z,18.00
2018-06-16T06:36:05.313Z,18.10
2018-06-16T06:37:04.685Z,18.10
2018-06-16T06:38:05.359Z,18.10
2018-06-16T06:39:05.249Z,18.20
2018-06-16T06:40:04.924Z,18.20
2018-06-16T06:41:10.571Z,18.20
2018-06-16T06:42:04.896Z,18.20
2018-06-16T06:43:05.332Z,18.30
2018-06-16T06:44:05.329Z,18.30
2018-06-16T06:45:05.278Z,18.30
2018-06-16T06:46:05.269Z,18.30
2018-06-16T06:47:05.662Z,18.30
2018-06-16T06:48:05.517Z,18.40
2018-06-16T06:49:04.981Z,18.40
2018-06-16T06:50:04.879Z,18.40
2018-06-16T06:51:05.529Z,18.40
2018-06-16T06:52:05.081Z,18.50
2018-06-16T06:53:05.028Z,18.50
2018-06-16T06:54:05.722Z,18.50
2018-06-16T06:55:05.073Z,18.50
2018-06-16T06:56:05.188Z,18.50
2018-06-16T06:57:05.167Z,18.50
2018-06-16T06:58:04.966Z,18.60
2018-06-16T06:59:05.583Z,18.60
2018-06-16T07:00:04.749Z,18.60
2018-06-16T07:01:05.693Z,18.60
2018-06-16T07:02:05.562Z,18.70
2018-06-16T07:03:04.694Z,18.70
2018-06-16T07:04:05.509Z,18.70
2018-06-16T07:05:05.014Z,18.80
2018-06-16T07:06:05.502Z,18.80
2018-06-16T07:07:05.513Z,18.80
2018-06-16T07:08:05.307Z,18.80
2018-06-16T07:09:05.278Z,18.90
2018-06-16T07:10:04.941Z,18.90
2018-06-16T07:11:05.100Z,18.90
2018-06-16T07:12:05.134Z,18.90
2018-06-16T07:13:05.401Z,19.00
2018-06-16T07:14:05.626Z,19.00
2018-06-16T07:15:05.086Z,19.00
2018-06-16T07:16:04.829Z,19.10
2018-06-16T07:17:05.577Z,19.10
2018-06-16T07:18:05.565Z,19.10
2018-06-16T07:19:05.664Z,19.10
2018-06-16T07:20:04.724Z,19.20
2018-06-16T07:21:04.962Z,19.20
2018-06-16T07:22:05.520Z,19.20
2018-06-16T07:23:05.226Z,19.20
2018-06-16T07:24:04.980Z,19.20
2018-06-16T07:25:05.657Z,19.30
2018-06-16T07:26:05.032Z,19.30
2018-06-16T07:27:05.043Z,19.30
2018-06-16T07:28:05.325Z,19.30
2018-06-16T07:29:04.726Z,19.40
2018-06-16T07:30:05.290Z,19.40
2018-06-16T07:31:05.085Z,19.40
2018-06-16T07:32:05.034Z,19.40
2018-06-16T07:33:05.144Z,19.50
2018-06-16T07:34:05.203Z,19.50
2018-06-16T07:35:04.999Z,19.50
2018-06-16T07:36:05.500Z,19.60
2018-06-16T07:37:05.392Z,19.60
2018-06-16T07:38:04.822Z,19.60
2018-06-16T07:39:05.091Z,19.70
2018-06-16T07:40:05.625Z,19.70
2018-06-16T07:41:05.408Z,19.80
2018-06-16T07:42:04.989Z,19.80
2018-06-16T07:43:04.781Z,19.80
2018-06-16T07:44:05.187Z,19.90
2018-06-16T07:45:05.280Z,19.90
2018-06-16T07:46:05.120Z,19.90
2018-06-16T07:47:05.543Z,20.00
2018-06-16T07:48:05.116Z,20.00
2018-06-16T07:49:05.017Z,20.00
2018-06-16T07:50:05.449Z,20.10
2018-06-16T07:51:05.276Z,20.10
2018-06-16T07:52:05.197Z,20.10
2018-06-16T07:53:05.017Z,20.20
2018-06-16T07:54:04.953Z,20.20
2018-06-16T07:55:04.934Z,20.30
2018-06-16T07:56:05.041Z,20.30
2018-06-16T07:57:04.909Z,20.40
2018-06-16T07:58:04.937Z,20.40
2018-06-16T07:59:05.558Z,20.50
2018-06-16T08:00:05.240Z,20.50
2018-06-16T08:01:04.833Z,20.60
2018-06-16T08:02:05.519Z,20.60
2018-06-16T08:03:05.247Z,20.70
2018-06-16T08:04:04.726Z,20.70
2018-06-16T08:05:04.959Z,20.80
2018-06-16T08:06:05.114Z,20.80
2018-06-16T08:07:05.046Z,20.90
2018-06-16T08:08:04.987Z,20.90
2018-06-16T08:09:05.478Z,20.90
2018-06-16T08:10:04.901Z,21.00
2018-06-16T08:11:04.820Z,21.00
2018-06-16T08:12:05.554Z,21.10
2018-06-16T08:13:05.002Z,21.10
2018-06-16T08:14:04.837Z,21.20
2018-06-16T08:15:04.741Z,21.30
2018-06-16T08:16:04.726Z,21.30
2018-06-16T08:17:04.776Z,21.40
2018-06-16T08:18:05.328Z,21.50
2018-06-16T08:19:05.542Z,21.60
2018-06-16T08:20:05.669Z,21.70
2018-06-16T08:21:04.797Z,21.80
2018-06-16T08:22:04.939Z,21.90
2018-06-16T08:23:04.659Z,21.90
2018-06-16T08:24:04.756Z,22.00
2018-06-16T08:25:05.389Z,22.10
2018-06-16T08:26:05.447Z,22.10
2018-06-16T08:27:05.094Z,22.20
2018-06-16T08:28:05.063Z,22.20
2018-06-16T08:29:04.937Z,22.30
2018-06-16T08:30:05.816Z,22.40
2018-06-16T08:31:04.684Z,22.40
2018-06-16T08:32:05.300Z,22.40
2018-06-16T08:33:05.377Z,22.50
2018-06-16T08:34:05.004Z,22.50
2018-06-16T08:35:05.630Z,22.50
2018-06-16T08:36:04.940Z,22.50
2018-06-16T08:37:05.090Z,22.50
2018-06-16T08:38:05.097Z,22.60
2018-06-16T08:39:05.011Z,22.60
2018-06-16T08:40:05.679Z,22.60
2018-06-16T08:41:05.196Z,22.70
2018-06-16T08:42:05.361Z,22.70
2018-06-16T08:43:05.110Z,22.80
2018-06-16T08:44:05.349Z,22.80
2018-06-16T08:45:05.204Z,22.80
2018-06-16T08:46:05.649Z,22.90
2018-06-16T08:47:05.551Z,22.90
2018-06-16T08:48:05.624Z,23.00
2018-06-16T08:49:05.507Z,23.00
2018-06-16T08:50:05.600Z,23.10
2018-06-16T08:51:05.356Z,23.10
2018-06-16T08:52:05.359Z,23.20
2018-06-16T08:53:04.810Z,23.20
2018-06-16T08:54:05.047Z,23.20
2018-06-16T08:55:04.936Z,23.20
2018-06-16T08:56:04.854Z,23.30
2018-06-16T08:57:04.842Z,23.30
2018-06-16T08:58:04.946Z,23.30
2018-06-16T08:59:04.837Z,23.30
2018-06-16T09:00:05.561Z,23.30
2018-06-16T09:01:05.331Z,23.30
2018-06-16T09:02:05.489Z,23.30
2018-06-16T09:03:05.452Z,23.30
2018-06-16T09:04:05.509Z,23.30
2018-06-16T09:05:05.150Z,23.30
2018-06-16T09:06:05.199Z,23.30
2018-06-16T09:07:05.140Z,23.30
2018-06-16T09:08:04.945Z,23.30
2018-06-16T09:09:05.377Z,23.30
2018-06-16T09:10:05.586Z,23.40
2018-06-16T09:11:05.541Z,23.40
2018-06-16T09:12:05.045Z,23.40
2018-06-16T09:13:05.695Z,23.40
2018-06-16T09:14:05.583Z,23.50
2018-06-16T09:15:05.005Z,23.50
2018-06-16T09:16:04.883Z,23.50
2018-06-16T09:17:04.793Z,23.50
2018-06-16T09:18:04.674Z,23.50
2018-06-16T09:19:04.733Z,23.60
2018-06-16T09:20:05.986Z,23.60
2018-06-16T09:21:05.327Z,23.60
2018-06-16T09:22:05.537Z,23.60
2018-06-16T09:23:05.374Z,23.70
2018-06-16T09:24:04.883Z,23.70
2018-06-16T09:25:04.866Z,23.70
2018-06-16T09:26:05.409Z,23.70
2018-06-16T09:27:05.280Z,23.70
2018-06-16T09:28:09.909Z,23.80
2018-06-16T09:29:05.015Z,23.80
2018-06-16T09:30:05.248Z,23.80
2018-06-16T09:31:05.063Z,23.90
2018-06-16T09:32:04.831Z,23.90
2018-06-16T09:33:04.950Z,23.90
2018-06-16T09:34:05.436Z,24.00
2018-06-16T09:35:05.131Z,24.00
2018-06-16T09:36:04.793Z,24.00
2018-06-16T09:37:04.922Z,24.00
2018-06-16T09:38:05.127Z,24.10
2018-06-16T09:39:05.253Z,24.10
2018-06-16T09:40:05.117Z,24.10
2018-06-16T09:41:04.715Z,24.10
2018-06-16T09:42:04.910Z,24.20
2018-06-16T09:43:05.112Z,24.20
2018-06-16T09:44:04.884Z,24.20
2018-06-16T09:45:05.595Z,24.20
2018-06-16T09:46:04.896Z,24.20
2018-06-16T09:47:05.384Z,24.20
2018-06-16T09:48:04.972Z,24.20
2018-06-16T09:49:04.882Z,24.20
2018-06-16T09:50:05.024Z,24.20
2018-06-16T09:51:04.925Z,24.30
2018-06-16T09:52:04.831Z,24.30
2018-06-16T09:53:04.790Z,24.30
2018-06-16T09:54:05.447Z,24.30
2018-06-16T09:55:05.398Z,24.30
2018-06-16T09:56:04.899Z,24.30
2018-06-16T09:57:04.990Z,24.30
2018-06-16T09:58:05.010Z,24.30
2018-06-16T09:59:04.856Z,24.40
2018-06-16T10:00:04.834Z,24.30
2018-06-16T10:01:05.341Z,24.30
2018-06-16T10:02:05.300Z,24.40
2018-06-16T10:03:05.407Z,24.40
2018-06-16T10:04:05.080Z,24.30
2018-06-16T10:05:05.578Z,24.40
2018-06-16T10:06:05.362Z,24.40
2018-06-16T10:07:04.985Z,24.40
2018-06-16T10:08:04.999Z,24.40
2018-06-16T10:09:05.124Z,24.50
2018-06-16T10:10:04.756Z,24.50
2018-06-16T10:11:05.682Z,24.50
2018-06-16T10:12:05.246Z,24.60
2018-06-16T10:13:04.687Z,24.60
2018-06-16T10:14:04.838Z,24.60
2018-06-16T10:15:05.358Z,24.60
2018-06-16T10:16:04.912Z,24.70
2018-06-16T10:17:04.784Z,24.70
2018-06-16T10:18:05.556Z,24.70
2018-06-16T10:19:05.573Z,24.70
2018-06-16T10:20:04.993Z,24.70
2018-06-16T10:21:05.097Z,24.80
2018-06-16T10:22:04.665Z,24.80
2018-06-16T10:23:04.790Z,24.80
2018-06-16T10:24:04.760Z,24.80
2018-06-16T10:25:04.901Z,24.80
2018-06-16T10:26:05.561Z,24.80
2018-06-16T10:27:05.098Z,24.80
2018-06-16T10:28:05.033Z,24.80
2018-06-16T10:29:05.619Z,24.80
2018-06-16T10:30:05.535Z,24.80
2018-06-16T10:31:05.752Z,24.80
2018-06-16T10:32:05.546Z,24.80
2018-06-16T10:33:05.162Z,24.80
2018-06-16T10:34:04.806Z,24.80
2018-06-16T10:35:04.654Z,24.80
2018-06-16T10:36:04.800Z,24.90
2018-06-16T10:37:05.446Z,24.90
2018-06-16T10:38:05.125Z,24.90
2018-06-16T10:39:05.498Z,24.80
2018-06-16T10:40:05.016Z,24.80
2018-06-16T10:41:05.567Z,24.80
2018-06-16T10:42:05.653Z,24.80
2018-06-16T10:43:05.008Z,24.90
2018-06-16T10:44:05.039Z,24.90
2018-06-16T10:45:04.912Z,24.90
2018-06-16T10:46:05.626Z,24.90
2018-06-16T10:47:05.238Z,24.90
2018-06-16T10:48:09.833Z,24.90
2018-06-16T10:49:05.596Z,24.90
2018-06-16T10:50:04.625Z,24.90
2018-06-16T10:51:05.314Z,24.90
2018-06-16T10:52:05.364Z,24.90
2018-06-16T10:53:05.538Z,24.90
2018-06-16T10:54:05.419Z,24.90
2018-06-16T10:55:05.212Z,24.90
2018-06-16T10:56:04.651Z,24.90
2018-06-16T10:57:05.579Z,25.00
2018-06-16T10:58:05.125Z,24.90
2018-06-16T10:59:05.093Z,25.00
2018-06-16T11:00:05.197Z,25.00
2018-06-16T11:01:10.282Z,25.00
2018-06-16T11:02:05.191Z,25.00
2018-06-16T11:03:05.035Z,25.00
2018-06-16T11:04:05.437Z,25.00
2018-06-16T11:05:05.001Z,25.00
2018-06-16T11:06:05.071Z,25.00
2018-06-16T11:07:04.868Z,25.00
2018-06-16T11:08:05.551Z,25.00
2018-06-16T11:09:05.595Z,25.00
2018-06-16T11:10:05.555Z,25.00
2018-06-16T11:11:04.965Z,25.00
2018-06-16T11:12:04.885Z,25.00
2018-06-16T11:13:05.168Z,25.00
2018-06-16T11:14:05.342Z,25.00
2018-06-16T11:15:05.066Z,25.00
2018-06-16T11:16:04.734Z,25.00
2018-06-16T11:17:05.642Z,25.00
2018-06-16T11:18:05.623Z,25.10
2018-06-16T11:19:05.445Z,25.10
2018-06-16T11:20:04.756Z,25.10
2018-06-16T11:21:04.940Z,25.10
2018-06-16T11:22:04.957Z,25.10
2018-06-16T11:23:04.855Z,25.10
2018-06-16T11:24:05.446Z,25.20
2018-06-16T11:25:05.570Z,25.20
2018-06-16T11:26:05.590Z,25.20
2018-06-16T11:27:05.395Z,25.20
2018-06-16T11:28:04.846Z,25.30
2018-06-16T11:29:05.323Z,25.30
2018-06-16T11:30:05.221Z,25.30
2018-06-16T11:31:05.309Z,25.30
2018-06-16T11:32:05.248Z,25.30
2018-06-16T11:33:05.378Z,25.30
2018-06-16T11:34:04.959Z,25.30
2018-06-16T11:35:05.079Z,25.30
2018-06-16T11:36:10.308Z,25.30
2018-06-16T11:37:05.569Z,25.30
2018-06-16T11:38:04.894Z,25.40
2018-06-16T11:39:05.823Z,25.40
2018-06-16T11:40:05.542Z,25.40
2018-06-16T11:41:05.324Z,25.40
2018-06-16T11:42:04.742Z,25.40
2018-06-16T11:43:04.828Z,25.40
2018-06-16T11:44:04.962Z,25.40
2018-06-16T11:45:05.675Z,25.40
2018-06-16T11:46:05.097Z,25.40
2018-06-16T11:47:04.806Z,25.40
2018-06-16T11:48:04.885Z,25.40
2018-06-16T11:49:05.413Z,25.40
2018-06-16T11:50:05.239Z,25.50
2018-06-16T11:51:05.181Z,25.50
2018-06-16T11:52:04.979Z,25.50
2018-06-16T11:53:04.971Z,25.50
2018-06-16T11:54:05.579Z,25.50
2018-06-16T11:55:05.085Z,25.60
2018-06-16T11:56:05.249Z,25.60
2018-06-16T11:57:05.513Z,25.60
2018-06-16T11:58:05.093Z,25.60
2018-06-16T11:59:04.890Z,25.60
2018-06-16T12:00:05.123Z,25.60
2018-06-16T12:01:04.935Z,25.70
2018-06-16T12:02:04.898Z,25.70
2018-06-16T12:03:05.531Z,25.70
2018-06-16T12:04:05.968Z,25.70
2018-06-16T12:05:05.154Z,25.80
2018-06-16T12:06:05.594Z,25.80
2018-06-16T12:07:05.357Z,25.80
2018-06-16T12:08:05.556Z,25.80
2018-06-16T12:09:05.424Z,25.80
2018-06-16T12:10:05.675Z,25.80
2018-06-16T12:11:05.528Z,25.90
2018-06-16T12:12:05.150Z,25.90
2018-06-16T12:13:05.037Z,25.90
2018-06-16T12:14:05.706Z,25.90
2018-06-16T12:15:04.894Z,26.00
2018-06-16T12:16:05.603Z,26.00
2018-06-16T12:17:05.519Z,26.00
2018-06-16T12:18:05.153Z,26.00
2018-06-16T12:19:04.819Z,26.10
2018-06-16T12:20:05.239Z,26.10
2018-06-16T12:21:05.066Z,26.10
2018-06-16T12:22:04.893Z,26.10
2018-06-16T12:23:04.671Z,26.10
2018-06-16T12:24:04.766Z,26.10
2018-06-16T12:25:05.356Z,26.10
2018-06-16T12:26:04.997Z,26.10
2018-06-16T12:27:05.566Z,26.10
2018-06-16T12:28:05.353Z,26.10
2018-06-16T12:29:05.211Z,26.10
2018-06-16T12:30:05.258Z,26.10
2018-06-16T12:31:05.740Z,26.10
2018-06-16T12:32:05.646Z,26.10
2018-06-16T12:33:05.267Z,26.10
2018-06-16T12:34:05.382Z,26.10
2018-06-16T12:35:05.553Z,26.20
2018-06-16T12:36:05.134Z,26.20
2018-06-16T12:37:04.785Z,26.20
2018-06-16T12:38:05.051Z,26.20
2018-06-16T12:39:05.177Z,26.20
2018-06-16T12:40:05.643Z,26.20
2018-06-16T12:41:04.866Z,26.30
2018-06-16T12:42:04.730Z,26.30
2018-06-16T12:43:04.706Z,26.30
2018-06-16T12:44:05.131Z,26.30
2018-06-16T12:45:05.140Z,26.30
2018-06-16T12:46:04.778Z,26.30
2018-06-16T12:47:05.522Z,26.30
2018-06-16T12:48:05.396Z,26.30
2018-06-16T12:49:05.744Z,26.30
2018-06-16T12:50:05.580Z,26.30
2018-06-16T12:51:04.872Z,26.30
2018-06-16T12:52:05.368Z,26.30